Time;durP1;ratioP1;P1;durP2;ratioP2;P2;SDS_P1;SDS_P2;PMS_P1;PMS_P2;Temp;Humidity;BMP_temperature;BMP_pressure;BME280_temperature;BME280_humidity;BME280_pressure;Samples;Min_cycle;Max_cycle;Signal;HPM_P1;HPM_P2
2024/01/31 00:00:08;;;;;;;61.70;37.80;;;;;;;1.42;100.00;102748.79;106133;1256;73745;-80
2024/01/31 00:02:36;;;;;;;65.60;39.50;;;;;;;1.42;100.00;102747.76;105893;1256;63948;-77
2024/01/31 00:05:04;;;;;;;60.30;37.40;;;;;;;1.43;100.00;102744.33;105949;1251;70496;-79
2024/01/31 00:07:31;;;;;;;60.60;38.80;;;;;;;1.44;100.00;102742.25;105825;1257;61000;-79
2024/01/31 00:09:58;;;;;;;68.60;39.70;;;;;;;1.44;100.00;102740.53;105943;1251;60472;-79
2024/01/31 00:12:27;;;;;;;66.30;39.30;;;;;;;1.44;100.00;102740.19;106131;1253;73889;-77
2024/01/31 00:14:54;;;;;;;71.20;39.30;;;;;;;1.43;100.00;102736.05;106045;1253;62651;-76
2024/01/31 00:17:22;;;;;;;74.50;40.40;;;;;;;1.42;100.00;102735.17;105876;1255;72578;-77
2024/01/31 00:19:49;;;;;;;73.50;40.70;;;;;;;1.41;100.00;102733.61;105937;1257;61232;-77
2024/01/31 00:22:17;;;;;;;70.80;38.20;;;;;;;1.41;100.00;102737.05;105978;1252;60545;-77
2024/01/31 00:24:44;;;;;;;62.90;35.70;;;;;;;1.40;100.00;102733.08;106090;1251;73878;-78
2024/01/31 00:27:11;;;;;;;69.60;37.40;;;;;;;1.38;100.00;102730.29;106060;1256;63846;-75
2024/01/31 00:29:37;;;;;;;62.60;34.60;;;;;;;1.37;100.00;102732.52;105960;1257;71361;-76
2024/01/31 00:32:06;;;;;;;77.30;41.50;;;;;;;1.35;100.00;102732.84;105923;1257;60371;-77
2024/01/31 00:34:32;;;;;;;63.90;37.30;;;;;;;1.33;100.00;102735.58;106043;1256;60446;-77
2024/01/31 00:37:00;;;;;;;69.80;40.20;;;;;;;1.31;100.00;102734.20;106197;1251;73831;-78
2024/01/31 00:39:31;;;;;;;70.50;40.40;;;;;;;1.31;100.00;102734.52;106167;1257;63931;-75
2024/01/31 00:41:58;;;;;;;69.70;43.10;;;;;;;1.30;100.00;102733.30;106013;1251;71465;-79
2024/01/31 00:44:26;;;;;;;74.10;43.30;;;;;;;1.28;100.00;102731.71;106692;1256;61071;-76
2024/01/31 00:46:53;;;;;;;70.10;44.50;;;;;;;1.27;100.00;102729.98;106938;1257;60423;-76
2024/01/31 00:49:20;;;;;;;73.80;45.30;;;;;;;1.26;100.00;102727.21;106230;1251;72635;-77
2024/01/31 00:51:52;;;;;;;77.10;46.00;;;;;;;1.23;100.00;102726.16;106267;1251;63681;-78
2024/01/31 01:06:35;;;;;;;76.60;47.70;;;;;;;1.48;100.00;102723.17;103401;1282;616145;-81
2024/01/31 01:09:02;;;;;;;74.20;47.30;;;;;;;1.54;100.00;102719.46;105061;1263;114155;-82
2024/01/31 01:11:29;;;;;;;78.60;49.20;;;;;;;1.52;100.00;102717.88;105228;1263;59426;-82
2024/01/31 01:13:57;;;;;;;74.90;47.30;;;;;;;1.50;100.00;102718.71;105215;1263;72254;-80
2024/01/31 01:16:25;;;;;;;80.70;49.40;;;;;;;1.45;100.00;102715.73;105181;1263;62363;-83
2024/01/31 01:18:52;;;;;;;85.20;48.80;;;;;;;1.42;100.00;102716.55;104979;1263;70376;-81
2024/01/31 01:21:19;;;;;;;80.20;47.10;;;;;;;1.38;100.00;102711.85;106098;1251;59352;-82
2024/01/31 01:23:46;;;;;;;83.60;48.60;;;;;;;1.35;100.00;102714.40;106075;1251;60367;-81
2024/01/31 01:26:13;;;;;;;77.90;48.20;;;;;;;1.30;100.00;102707.63;106025;1251;72214;-81
2024/01/31 01:28:40;;;;;;;80.90;48.70;;;;;;;1.27;100.00;102703.79;105924;1257;63989;-82
2024/01/31 01:31:07;;;;;;;80.10;49.40;;;;;;;1.23;100.00;102703.92;106145;1253;72756;-83
2024/01/31 01:33:34;;;;;;;80.60;47.70;;;;;;;1.19;100.00;102704.05;106081;1255;60977;-81
2024/01/31 01:36:03;;;;;;;89.30;49.00;;;;;;;1.17;100.00;102699.02;106022;1256;59560;-81
2024/01/31 01:38:32;;;;;;;77.70;49.30;;;;;;;1.15;100.00;102698.14;106060;1251;73078;-82
2024/01/31 01:40:59;;;;;;;85.20;50.20;;;;;;;1.14;100.00;102695.20;106029;1256;63731;-83
2024/01/31 01:43:27;;;;;;;76.50;46.80;;;;;;;1.14;100.00;102692.10;106017;1255;72655;-81
2024/01/31 01:46:02;;;;;;;86.20;54.50;;;;;;;1.13;100.00;102686.23;105993;1252;60044;-80
2024/01/31 01:48:29;;;;;;;79.00;49.50;;;;;;;1.13;100.00;102678.29;106013;1252;60296;-81
2024/01/31 01:50:56;;;;;;;85.60;52.90;;;;;;;1.12;100.00;102674.85;105980;1256;71560;-82
2024/01/31 01:53:23;;;;;;;78.50;49.80;;;;;;;1.12;100.00;102669.34;105992;1256;62511;-81
2024/01/31 01:55:50;;;;;;;77.20;48.40;;;;;;;1.13;100.00;102668.83;106042;1256;72828;-81
2024/01/31 01:58:16;;;;;;;75.30;48.50;;;;;;;1.13;100.00;102669.00;105911;1251;60873;-80
2024/01/31 02:00:45;;;;;;;80.60;49.10;;;;;;;1.14;100.00;102667.64;105919;1252;60428;-81
2024/01/31 02:03:13;;;;;;;74.80;44.90;;;;;;;1.14;100.00;102670.23;105737;1253;73099;-80
2024/01/31 02:05:42;;;;;;;66.50;44.10;;;;;;;1.15;100.00;102671.78;105928;1259;63690;-81
2024/01/31 02:08:09;;;;;;;76.30;45.30;;;;;;;1.17;100.00;102676.80;105717;1260;71397;-81
2024/01/31 02:10:36;;;;;;;75.90;45.90;;;;;;;1.19;100.00;102681.83;105683;1251;61037;-82
2024/01/31 02:13:03;;;;;;;83.30;49.00;;;;;;;1.21;100.00;102684.09;105975;1253;59629;-82
2024/01/31 02:15:31;;;;;;;72.20;44.10;;;;;;;1.21;100.00;102684.42;105944;1252;73159;-82
2024/01/31 02:17:57;;;;;;;71.40;44.70;;;;;;;1.22;100.00;102687.55;105978;1256;63687;-80
2024/01/31 02:20:24;;;;;;;71.60;43.80;;;;;;;1.23;100.00;102684.11;105957;1252;72545;-80
2024/01/31 02:22:51;;;;;;;71.10;45.80;;;;;;;1.25;100.00;102679.31;106063;1252;59715;-82
2024/01/31 02:25:18;;;;;;;73.90;43.40;;;;;;;1.29;100.00;102677.29;106200;1254;60013;-81
2024/01/31 02:27:45;;;;;;;75.60;41.70;;;;;;;1.32;100.00;102676.46;106051;1251;71660;-81
2024/01/31 02:30:15;;;;;;;70.70;41.40;;;;;;;1.36;100.00;102680.64;106013;1255;63869;-82
2024/01/31 02:32:43;;;;;;;65.00;39.30;;;;;;;1.39;100.00;102674.47;106048;1253;72661;-80
2024/01/31 02:35:11;;;;;;;65.20;40.00;;;;;;;1.41;100.00;102663.45;106021;1256;61217;-82
2024/01/31 02:37:42;;;;;;;70.20;41.10;;;;;;;1.41;100.00;102657.44;106208;1256;59566;-83
2024/01/31 02:40:09;;;;;;;63.60;38.30;;;;;;;1.41;100.00;102657.61;105947;1254;73208;-82
2024/01/31 02:42:36;;;;;;;70.80;38.60;;;;;;;1.40;100.00;102660.71;105912;1256;63625;-82
2024/01/31 02:45:04;;;;;;;75.10;41.30;;;;;;;1.41;100.00;102657.79;106017;1256;72683;-83
2024/01/31 02:47:36;;;;;;;63.20;40.00;;;;;;;1.42;100.00;102656.94;106052;1256;60946;-81
2024/01/31 02:50:03;;;;;;;69.10;40.10;;;;;;;1.42;100.00;102645.90;106056;1255;60336;-82
2024/01/31 02:52:31;;;;;;;76.80;41.30;;;;;;;1.39;100.00;102648.96;106016;1253;73172;-81
2024/01/31 02:55:06;;;;;;;66.90;42.40;;;;;;;1.37;100.00;102653.77;105912;1256;63871;-82
2024/01/31 02:57:34;;;;;;;64.60;40.40;;;;;;;1.35;100.00;102650.14;105791;1257;71475;-81
2024/01/31 03:00:06;;;;;;;73.80;41.20;;;;;;;1.34;100.00;102651.33;105787;1253;59931;-81
2024/01/31 03:02:34;;;;;;;61.30;37.80;;;;;;;1.33;100.00;102648.04;105792;1256;62148;-82
2024/01/31 03:05:01;;;;;;;70.00;38.90;;;;;;;1.33;100.00;102648.20;105987;1254;73085;-81
2024/01/31 03:07:28;;;;;;;67.40;38.00;;;;;;;1.34;100.00;102644.42;106036;1257;62494;-81
2024/01/31 03:09:55;;;;;;;69.40;39.40;;;;;;;1.36;100.00;102646.52;105956;1253;72700;-83
2024/01/31 03:12:22;;;;;;;63.80;37.10;;;;;;;1.39;100.00;102643.95;105934;1258;61622;-83
2024/01/31 03:14:49;;;;;;;67.00;39.30;;;;;;;1.41;100.00;102642.96;106041;1253;60186;-83
2024/01/31 03:17:16;;;;;;;67.70;38.80;;;;;;;1.42;100.00;102643.32;106009;1253;72829;-83
2024/01/31 03:19:44;;;;;;;63.00;37.30;;;;;;;1.44;100.00;102642.48;105997;1258;63874;-83
2024/01/31 03:22:10;;;;;;;63.60;37.30;;;;;;;1.45;100.00;102636.98;105946;1253;72865;-84
2024/01/31 03:24:38;;;;;;;71.90;39.90;;;;;;;1.45;100.00;102638.18;105990;1257;61298;-83
2024/01/31 03:27:05;;;;;;;63.10;37.60;;;;;;;1.46;100.00;102639.55;105968;1257;59560;-84
2024/01/31 03:29:32;;;;;;;69.80;39.00;;;;;;;1.47;100.00;102639.23;105873;1253;72824;-82
2024/01/31 03:31:59;;;;;;;67.80;37.10;;;;;;;1.49;100.00;102640.10;105833;1255;62681;-82
2024/01/31 03:34:27;;;;;;;72.60;39.90;;;;;;;1.50;100.00;102641.49;105895;1258;72686;-82
2024/01/31 03:36:54;;;;;;;73.60;37.40;;;;;;;1.53;100.00;102637.39;105977;1257;59675;-81
2024/01/31 03:39:25;;;;;;;67.90;37.20;;;;;;;1.54;100.00;102636.71;105985;1257;59613;-82
2024/01/31 03:41:52;;;;;;;73.00;39.30;;;;;;;1.53;100.00;102634.11;106214;1253;72905;-82
2024/01/31 03:44:20;;;;;;;68.80;39.40;;;;;;;1.53;100.00;102636.01;106233;1256;63903;-82
2024/01/31 03:46:47;;;;;;;71.90;38.20;;;;;;;1.51;100.00;102632.20;105784;1253;72653;-82
2024/01/31 03:49:14;;;;;;;69.00;39.10;;;;;;;1.50;100.00;102636.67;106408;1257;61066;-82
2024/01/31 03:51:42;;;;;;;57.70;34.60;;;;;;;1.49;100.00;102641.85;106048;1253;59519;-81
2024/01/31 03:54:09;;;;;;;64.10;37.80;;;;;;;1.50;100.00;102643.23;106196;1258;73049;-81
2024/01/31 03:56:36;;;;;;;73.30;40.00;;;;;;;1.50;100.00;102639.09;106595;1258;63829;-81
2024/01/31 03:59:03;;;;;;;61.50;36.80;;;;;;;1.52;100.00;102635.32;106886;1257;72683;-81
2024/01/31 04:01:30;;;;;;;59.50;36.20;;;;;;;1.55;100.00;102633.45;106941;1253;61115;-78
2024/01/31 04:03:57;;;;;;;61.40;38.30;;;;;;;1.56;100.00;102636.05;106937;1253;59806;-79
2024/01/31 04:06:24;;;;;;;65.30;37.50;;;;;;;1.58;100.00;102636.40;106899;1253;71652;-80
2024/01/31 04:08:51;;;;;;;65.20;37.90;;;;;;;1.58;100.00;102633.14;107129;1253;64176;-81
2024/01/31 04:11:18;;;;;;;62.10;38.30;;;;;;;1.60;100.00;102632.99;107193;1253;72607;-81
2024/01/31 04:13:45;;;;;;;66.90;39.20;;;;;;;1.61;100.00;102635.07;107408;1253;59862;-81
2024/01/31 04:16:16;;;;;;;60.50;36.40;;;;;;;1.61;100.00;102623.52;107787;1253;60033;-80
2024/01/31 04:18:43;;;;;;;65.30;37.50;;;;;;;1.58;100.00;102608.48;106880;1258;71727;-81
2024/01/31 04:21:20;;;;;;;71.50;39.40;;;;;;;1.53;100.00;102610.50;107091;1253;63871;-79
2024/01/31 04:23:48;;;;;;;79.20;42.70;;;;;;;1.49;100.00;102602.38;107297;1253;72744;-82
2024/01/31 04:26:15;;;;;;;77.80;45.50;;;;;;;1.48;100.00;102612.89;107312;1253;61189;-80
2024/01/31 04:28:42;;;;;;;80.50;44.60;;;;;;;1.48;100.00;102622.88;107334;1253;60046;-79
2024/01/31 04:31:15;;;;;;;79.30;45.40;;;;;;;1.49;100.00;102624.24;106727;1253;71936;-81
2024/01/31 04:33:43;;;;;;;76.70;44.70;;;;;;;1.51;100.00;102627.89;106244;1258;62357;-82
2024/01/31 04:36:10;;;;;;;66.00;41.60;;;;;;;1.51;100.00;102624.44;105774;1253;72598;-82
2024/01/31 04:38:38;;;;;;;69.90;41.40;;;;;;;1.49;100.00;102619.26;105956;1258;61191;-82
2024/01/31 04:41:05;;;;;;;72.30;43.70;;;;;;;1.46;100.00;102618.19;105903;1253;60213;-81
2024/01/31 04:43:32;;;;;;;74.10;42.50;;;;;;;1.44;100.00;102617.48;106009;1256;73469;-83
2024/01/31 04:45:58;;;;;;;69.80;41.50;;;;;;;1.48;100.00;102615.27;105812;1258;63781;-82
2024/01/31 04:48:25;;;;;;;69.70;41.00;;;;;;;1.51;100.00;102609.63;106011;1253;72557;-84
2024/01/31 04:50:52;;;;;;;71.90;41.50;;;;;;;1.55;100.00;102614.66;106182;1257;59710;-82
2024/01/31 04:53:19;;;;;;;73.70;39.70;;;;;;;1.57;100.00;102614.52;106143;1253;59995;-81
2024/01/31 04:55:46;;;;;;;72.00;41.60;;;;;;;1.57;100.00;102615.88;105974;1256;71070;-83
2024/01/31 04:58:16;;;;;;;76.40;41.00;;;;;;;1.56;100.00;102614.84;105808;1258;63752;-84
2024/01/31 05:00:43;;;;;;;81.00;43.00;;;;;;;1.54;100.00;102606.05;106010;1256;72661;-83
2024/01/31 05:03:10;;;;;;;70.50;42.20;;;;;;;1.53;100.00;102610.50;106006;1256;60035;-83
2024/01/31 05:05:37;;;;;;;70.20;38.00;;;;;;;1.52;100.00;102616.19;106148;1254;60302;-83
2024/01/31 05:08:05;;;;;;;74.00;41.10;;;;;;;1.53;100.00;102613.77;106052;1257;71905;-82
2024/01/31 05:10:34;;;;;;;68.90;39.70;;;;;;;1.55;100.00;102608.98;105679;1255;64209;-83
2024/01/31 05:13:01;;;;;;;66.80;35.80;;;;;;;1.57;100.00;102602.96;105899;1257;72721;-82
2024/01/31 05:15:31;;;;;;;67.70;35.80;;;;;;;1.59;100.00;102602.29;105977;1257;61185;-81
2024/01/31 05:17:59;;;;;;;67.00;34.40;;;;;;;1.58;100.00;102601.60;105914;1256;60552;-82
2024/01/31 05:20:29;;;;;;;63.30;33.20;;;;;;;1.58;100.00;102606.23;105888;1258;72072;-82
2024/01/31 05:22:56;;;;;;;60.20;33.30;;;;;;;1.59;100.00;102608.48;105823;1257;63851;-80
2024/01/31 05:25:23;;;;;;;65.10;34.50;;;;;;;1.61;100.00;102601.80;105896;1258;72725;-82
2024/01/31 05:27:50;;;;;;;65.30;33.00;;;;;;;1.65;100.00;102603.55;105953;1253;60579;-81
2024/01/31 05:30:17;;;;;;;51.40;32.60;;;;;;;1.67;100.00;102604.77;105901;1259;60550;-82
2024/01/31 05:32:46;;;;;;;57.60;35.40;;;;;;;1.69;100.00;102602.90;105946;1257;73697;-81
2024/01/31 05:35:13;;;;;;;62.50;36.00;;;;;;;1.70;100.00;102610.49;105651;1253;62535;-81
2024/01/31 05:37:40;;;;;;;69.20;41.40;;;;;;;1.70;100.00;102608.95;105975;1257;72727;-81
2024/01/31 05:40:09;;;;;;;67.40;38.80;;;;;;;1.72;100.00;102610.50;105869;1259;61189;-81
2024/01/31 05:42:36;;;;;;;72.50;40.40;;;;;;;1.72;100.00;102605.86;105842;1254;60429;-82
2024/01/31 05:45:03;;;;;;;72.00;39.80;;;;;;;1.74;100.00;102605.35;105835;1258;73351;-81
2024/01/31 05:47:30;;;;;;;75.60;42.40;;;;;;;1.75;100.00;102603.11;105911;1253;63827;-81
2024/01/31 05:49:57;;;;;;;86.60;50.10;;;;;;;1.75;100.00;102608.63;105915;1252;72382;-81
2024/01/31 05:52:24;;;;;;;94.50;56.70;;;;;;;1.77;100.00;102610.89;105920;1257;61197;-81
2024/01/31 05:54:51;;;;;;;97.50;52.30;;;;;;;1.79;100.00;102614.36;106015;1253;60470;-81
2024/01/31 05:57:18;;;;;;;87.60;50.70;;;;;;;1.81;100.00;102613.86;106179;1253;73805;-82
2024/01/31 05:59:45;;;;;;;96.10;54.60;;;;;;;1.84;100.00;102612.50;106047;1257;63997;-82
2024/01/31 06:02:13;;;;;;;108.90;57.40;;;;;;;1.86;100.00;102615.98;106463;1253;72662;-82
2024/01/31 06:04:40;;;;;;;105.70;56.50;;;;;;;1.89;100.00;102618.08;107552;1253;61064;-82
2024/01/31 06:07:07;;;;;;;100.40;52.90;;;;;;;1.93;100.00;102620.52;108028;1253;60467;-82
2024/01/31 06:09:35;;;;;;;95.90;50.40;;;;;;;1.97;100.00;102622.62;108457;1253;72670;-80
2024/01/31 06:12:02;;;;;;;105.00;50.10;;;;;;;2.00;100.00;102620.23;108390;1253;62626;-78
2024/01/31 06:14:31;;;;;;;85.70;49.80;;;;;;;2.04;100.00;102611.81;108018;1253;71790;-79
2024/01/31 06:16:58;;;;;;;85.50;47.70;;;;;;;2.07;100.00;102612.35;108880;1253;59964;-80
2024/01/31 06:19:25;;;;;;;84.50;49.20;;;;;;;2.10;100.00;102612.37;109064;1254;58984;-81
2024/01/31 06:21:53;;;;;;;80.90;49.90;;;;;;;2.11;100.00;102597.54;109349;1253;72411;-81
2024/01/31 06:24:20;;;;;;;87.80;49.40;;;;;;;2.14;100.00;102602.73;108319;1253;62321;-82
2024/01/31 06:26:46;;;;;;;97.90;53.80;;;;;;;2.19;100.00;102608.80;106465;1259;72372;-83
2024/01/31 06:29:18;;;;;;;104.70;59.10;;;;;;;2.26;100.00;102605.58;105968;1257;61201;-82
2024/01/31 06:31:48;;;;;;;106.80;60.30;;;;;;;2.34;100.00;102605.80;107496;1253;60461;-83
2024/01/31 06:34:16;;;;;;;109.00;62.60;;;;;;;2.40;100.00;102603.60;106353;1257;73737;-83
2024/01/31 06:36:44;;;;;;;104.10;59.70;;;;;;;2.45;100.00;102604.65;106255;1257;63565;-83
2024/01/31 06:39:11;;;;;;;103.50;60.00;;;;;;;2.47;100.00;102600.70;106118;1256;72739;-83
2024/01/31 06:41:38;;;;;;;98.60;60.80;;;;;;;2.49;100.00;102604.69;106307;1256;61106;-83
2024/01/31 06:44:06;;;;;;;88.50;54.40;;;;;;;2.51;100.00;102609.02;106227;1253;60486;-82
2024/01/31 06:46:33;;;;;;;92.00;51.80;;;;;;;2.53;100.00;102609.89;106435;1253;72463;-84
2024/01/31 06:49:00;;;;;;;84.70;51.20;;;;;;;2.57;100.00;102611.63;106294;1257;62475;-83
2024/01/31 06:51:27;;;;;;;78.20;47.30;;;;;;;2.61;100.00;102613.73;106718;1256;72444;-83
2024/01/31 06:53:55;;;;;;;85.20;49.80;;;;;;;2.65;100.00;102606.33;106212;1254;60507;-84
2024/01/31 06:56:22;;;;;;;82.30;48.70;;;;;;;2.69;100.00;102604.27;106147;1253;60474;-83
2024/01/31 06:58:51;;;;;;;80.90;47.10;;;;;;;2.73;100.00;102606.55;106315;1256;74060;-82
2024/01/31 07:01:18;;;;;;;82.20;46.40;;;;;;;2.78;100.00;102602.23;106233;1257;63894;-83
2024/01/31 07:03:46;;;;;;;82.70;43.50;;;;;;;2.84;100.00;102602.95;106447;1257;72774;-83
2024/01/31 07:06:13;;;;;;;75.30;44.90;;;;;;;2.88;100.00;102601.41;106344;1259;60675;-82
2024/01/31 07:08:43;;;;;;;82.20;48.10;;;;;;;2.95;100.00;102602.48;106128;1254;60450;-82
2024/01/31 07:11:10;;;;;;;73.00;45.00;;;;;;;3.00;100.00;102599.73;106043;1257;73853;-83
2024/01/31 07:13:37;;;;;;;82.50;41.60;;;;;;;3.06;100.00;102600.61;106160;1256;63181;-83
2024/01/31 07:16:07;;;;;;;68.50;41.10;;;;;;;3.11;100.00;102596.66;106198;1253;72493;-82
2024/01/31 07:18:34;;;;;;;74.40;39.60;;;;;;;3.15;100.00;102592.17;106637;1257;60441;-82
2024/01/31 07:21:01;;;;;;;71.20;41.30;;;;;;;3.17;100.00;102593.05;106248;1253;60442;-82
2024/01/31 07:23:28;;;;;;;65.70;38.00;;;;;;;3.17;100.00;102595.29;106147;1254;73822;-83
2024/01/31 07:25:56;;;;;;;64.60;38.80;;;;;;;3.19;100.00;102595.82;106220;1257;63844;-83
2024/01/31 07:28:23;;;;;;;68.00;41.70;;;;;;;3.20;100.00;102598.06;106453;1253;72709;-84
2024/01/31 07:30:50;;;;;;;64.70;37.30;;;;;;;3.23;100.00;102596.70;106447;1257;60990;-83
2024/01/31 07:33:19;;;;;;;58.40;35.00;;;;;;;3.32;100.00;102595.48;106195;1258;60427;-83
2024/01/31 07:35:46;;;;;;;62.70;35.40;;;;;;;3.44;100.00;102592.92;106237;1259;73858;-81
2024/01/31 07:38:14;;;;;;;58.90;34.40;;;;;;;3.55;100.00;102593.46;106289;1257;62729;-84
2024/01/31 07:40:43;;;;;;;66.60;36.30;;;;;;;3.66;100.00;102590.01;106397;1257;71275;-83
2024/01/31 07:43:11;;;;;;;55.50;32.20;;;;;;;3.75;100.00;102590.70;106406;1257;60448;-83
2024/01/31 07:45:38;;;;;;;54.10;34.50;;;;;;;3.81;100.00;102583.63;106476;1253;60469;-83
2024/01/31 07:48:05;;;;;;;64.00;36.10;;;;;;;3.85;100.00;102582.92;105969;1256;71724;-81
2024/01/31 07:50:32;;;;;;;77.60;41.00;;;;;;;3.82;100.00;102581.52;105780;1257;63877;-84
2024/01/31 07:53:02;;;;;;;79.30;39.90;;;;;;;3.80;100.00;102578.44;105784;1259;72887;-79
2024/01/31 07:55:29;;;;;;;77.70;43.60;;;;;;;3.80;100.00;102582.05;105779;1256;61271;-83
2024/01/31 07:57:56;;;;;;;79.40;44.40;;;;;;;3.77;100.00;102583.79;105887;1259;60467;-83
2024/01/31 08:00:24;;;;;;;76.00;40.40;;;;;;;3.74;100.00;102575.31;105829;1259;71533;-81
2024/01/31 08:02:52;;;;;;;91.20;46.10;;;;;;;3.73;100.00;102576.00;105811;1258;63922;-84
2024/01/31 08:05:19;;;;;;;88.60;48.80;;;;;;;3.75;100.00;102574.10;105793;1260;70952;-84
2024/01/31 08:07:46;;;;;;;94.00;47.30;;;;;;;3.78;100.00;102568.57;105812;1258;62059;-82
2024/01/31 08:10:13;;;;;;;88.70;49.70;;;;;;;3.82;100.00;102570.81;105800;1255;60642;-82
2024/01/31 08:12:44;;;;;;;102.90;56.90;;;;;;;3.85;100.00;102572.71;105788;1257;73013;-83
2024/01/31 08:15:11;;;;;;;118.70;61.70;;;;;;;3.85;100.00;102572.73;105777;1257;64137;-84
2024/01/31 08:17:38;;;;;;;114.50;64.20;;;;;;;3.84;100.00;102568.91;105820;1257;73426;-83
2024/01/31 08:20:06;;;;;;;116.00;61.10;;;;;;;3.84;100.00;102567.70;105804;1253;60553;-82
2024/01/31 08:22:33;;;;;;;111.50;60.40;;;;;;;3.84;100.00;102568.90;105828;1254;60538;-83
2024/01/31 08:25:04;;;;;;;85.30;49.20;;;;;;;3.85;100.00;102569.94;105971;1257;73924;-83
2024/01/31 08:27:31;;;;;;;92.90;52.10;;;;;;;3.87;100.00;102571.86;105812;1259;62380;-84
2024/01/31 08:30:03;;;;;;;90.20;52.20;;;;;;;3.90;100.00;102566.65;106056;1257;72552;-83
2024/01/31 08:32:33;;;;;;;79.00;43.30;;;;;;;3.97;100.00;102567.52;105985;1257;60999;-83
2024/01/31 08:35:02;;;;;;;77.20;41.40;;;;;;;4.04;100.00;102565.95;105891;1258;60532;-82
2024/01/31 08:37:29;;;;;;;69.20;40.30;;;;;;;4.10;100.00;102566.97;106023;1258;74189;-84
2024/01/31 08:39:56;;;;;;;70.80;39.90;;;;;;;4.19;100.00;102569.03;106283;1257;62705;-82
2024/01/31 08:42:28;;;;;;;65.30;35.60;;;;;;;4.30;100.00;102571.42;106733;1257;71112;-83
2024/01/31 08:44:56;;;;;;;51.90;32.70;;;;;;;4.45;100.00;102569.31;107467;1259;60847;-82
2024/01/31 08:47:23;;;;;;;56.30;31.10;;;;;;;4.57;100.00;102565.47;106994;1255;60423;-82
2024/01/31 08:49:50;;;;;;;47.40;29.60;;;;;;;4.68;100.00;102561.79;106514;1256;72550;-82
2024/01/31 08:52:18;;;;;;;42.80;26.10;;;;;;;4.82;100.00;102554.63;106253;1257;63984;-83
2024/01/31 08:54:45;;;;;;;44.20;25.90;;;;;;;4.98;100.00;102550.89;106515;1254;72805;-83
2024/01/31 08:57:13;;;;;;;41.10;22.30;;;;;;;5.12;100.00;102539.89;106232;1253;60430;-82
2024/01/31 08:59:40;;;;;;;32.70;20.00;;;;;;;5.25;100.00;102538.08;106178;1256;60476;-83
2024/01/31 09:02:07;;;;;;;32.50;19.90;;;;;;;5.36;100.00;102533.15;106211;1254;72988;-83
2024/01/31 09:04:35;;;;;;;31.20;19.40;;;;;;;5.49;100.00;102533.20;106222;1258;64077;-82
2024/01/31 09:07:03;;;;;;;28.60;17.50;;;;;;;5.60;100.00;102531.04;106878;1254;72597;-83
2024/01/31 09:09:33;;;;;;;32.30;18.90;;;;;;;5.72;100.00;102526.60;106375;1257;60479;-83
2024/01/31 09:12:00;;;;;;;31.20;19.30;;;;;;;5.86;100.00;102516.76;106323;1254;60311;-83
2024/01/31 09:14:27;;;;;;;30.10;18.40;;;;;;;5.96;100.00;102509.74;106613;1257;71705;-83
2024/01/31 09:16:54;;;;;;;26.70;16.90;;;;;;;6.07;100.00;102506.16;106979;1253;62612;-84
2024/01/31 09:19:22;;;;;;;21.90;14.70;;;;;;;6.18;100.00;102508.30;107375;1258;71517;-83
2024/01/31 09:21:50;;;;;;;19.70;15.10;;;;;;;6.31;100.00;102505.89;106840;1253;60431;-84
2024/01/31 09:24:17;;;;;;;19.80;14.80;;;;;;;6.41;100.00;102501.94;105844;1259;60369;-83
2024/01/31 09:26:44;;;;;;;18.90;13.90;;;;;;;6.50;100.00;102496.10;105928;1259;73929;-83
2024/01/31 09:29:11;;;;;;;21.80;15.40;;;;;;;6.63;100.00;102490.01;106027;1253;63801;-85
2024/01/31 09:31:38;;;;;;;20.50;14.30;;;;;;;6.76;100.00;102488.45;106020;1254;72492;-84
2024/01/31 09:34:05;;;;;;;19.90;13.70;;;;;;;6.85;100.00;102488.15;106660;1257;60364;-84
2024/01/31 09:36:32;;;;;;;19.50;14.70;;;;;;;6.93;100.00;102480.55;107590;1252;60339;-84
2024/01/31 09:39:00;;;;;;;20.30;14.20;;;;;;;7.03;100.00;102479.73;107167;1257;73908;-83
2024/01/31 09:41:27;;;;;;;16.60;12.80;;;;;;;7.14;100.00;102477.64;106392;1253;62824;-82
2024/01/31 09:43:54;;;;;;;16.60;13.70;;;;;;;7.22;99.54;102470.20;107218;1254;71448;-82
2024/01/31 09:46:21;;;;;;;18.00;13.10;;;;;;;7.31;96.74;102462.57;106038;1254;60507;-84
2024/01/31 09:48:47;;;;;;;19.80;12.80;;;;;;;7.39;90.84;102449.56;105736;1267;60375;-84
2024/01/31 09:51:14;;;;;;;23.30;14.10;;;;;;;7.43;84.68;102441.83;106228;1254;73214;-85
2024/01/31 09:53:42;;;;;;;23.60;14.10;;;;;;;7.45;83.07;102435.88;106051;1257;63033;-83
2024/01/31 09:56:09;;;;;;;17.80;13.10;;;;;;;7.48;82.06;102434.96;106441;1260;72661;-84
2024/01/31 09:58:38;;;;;;;28.50;13.80;;;;;;;7.47;80.68;102434.98;105874;1260;60374;-84
2024/01/31 10:01:05;;;;;;;20.70;13.50;;;;;;;7.43;80.18;102432.27;105847;1260;60364;-82
2024/01/31 10:03:43;;;;;;;23.70;13.80;;;;;;;7.47;79.80;102430.80;106026;1257;73660;-84
2024/01/31 10:06:10;;;;;;;20.30;13.70;;;;;;;7.56;78.77;102426.11;106081;1256;64282;-84
2024/01/31 10:08:41;;;;;;;18.40;13.20;;;;;;;7.67;78.10;102423.65;106099;1256;71641;-85
2024/01/31 10:11:07;;;;;;;22.30;13.80;;;;;;;7.80;77.01;102418.35;106227;1260;60524;-85
2024/01/31 10:13:35;;;;;;;21.10;13.50;;;;;;;7.94;75.24;102417.38;106212;1254;60611;-84
2024/01/31 10:16:02;;;;;;;18.80;12.40;;;;;;;8.07;74.75;102415.91;106288;1254;75036;-84
2024/01/31 10:18:29;;;;;;;23.80;13.10;;;;;;;8.20;73.20;102412.48;106377;1256;63247;-84
2024/01/31 10:20:57;;;;;;;27.80;15.40;;;;;;;8.36;71.65;102410.77;106139;1257;72530;-83
2024/01/31 10:23:24;;;;;;;25.90;15.20;;;;;;;8.50;70.85;102409.60;106247;1254;60359;-83
2024/01/31 10:25:51;;;;;;;28.60;15.60;;;;;;;8.52;68.84;102410.63;106334;1257;60445;-85
2024/01/31 10:28:20;;;;;;;31.40;16.20;;;;;;;8.54;69.43;102412.31;106283;1257;73513;-83
2024/01/31 10:30:50;;;;;;;33.10;18.10;;;;;;;8.56;69.89;102410.00;106822;1254;63983;-83
2024/01/31 10:33:17;;;;;;;27.80;17.40;;;;;;;8.59;69.59;102412.54;105910;1254;72849;-84
2024/01/31 10:35:47;;;;;;;26.60;17.30;;;;;;;8.64;69.57;102409.63;105827;1260;60877;-83
2024/01/31 10:38:34;;;;;;;23.90;15.50;;;;;;;8.71;69.59;102405.47;105903;1257;61199;-84
2024/01/31 10:41:02;;;;;;;24.40;15.50;;;;;;;8.75;68.19;102408.15;105951;1256;75102;-81
2024/01/31 10:43:29;;;;;;;21.40;14.80;;;;;;;8.75;67.34;102402.39;105866;1260;64229;-83
2024/01/31 10:45:56;;;;;;;22.70;15.90;;;;;;;8.73;68.15;102405.77;105831;1257;72893;-84
2024/01/31 10:48:23;;;;;;;20.10;14.70;;;;;;;8.70;68.66;102397.64;105961;1253;60529;-85
2024/01/31 10:50:51;;;;;;;26.70;16.50;;;;;;;8.74;68.65;102395.80;105968;1255;61081;-86
2024/01/31 10:53:18;;;;;;;20.80;14.60;;;;;;;8.85;70.14;102393.96;105745;1261;72690;-86
2024/01/31 10:55:44;;;;;;;21.40;14.60;;;;;;;9.12;69.36;102397.66;106173;1257;64893;-83
2024/01/31 10:58:13;;;;;;;24.70;15.00;;;;;;;9.42;67.51;102391.14;106182;1254;72858;-83
2024/01/31 11:00:46;;;;;;;23.80;15.70;;;;;;;9.70;66.17;102390.72;106387;1258;60536;-83
2024/01/31 11:03:16;;;;;;;23.40;15.70;;;;;;;10.03;64.65;102386.80;106025;1254;60447;-83
2024/01/31 11:05:43;;;;;;;26.90;17.50;;;;;;;10.34;64.31;102386.08;106524;1257;73294;-82
2024/01/31 11:08:20;;;;;;;20.80;15.00;;;;;;;10.67;63.91;102389.77;107284;1252;62984;-83
2024/01/31 11:10:49;;;;;;;20.90;14.50;;;;;;;11.05;61.98;102386.98;107020;1253;74261;-83
2024/01/31 11:13:18;;;;;;;18.30;12.20;;;;;;;11.40;60.05;102384.38;106449;1254;60557;-82
2024/01/31 11:15:45;;;;;;;17.60;12.30;;;;;;;11.68;56.24;102376.23;106076;1254;61719;-84